CEN weather

Ciudad Obregón International Airport
Ciudad Obregón, Sonora, Mexico

Public forecast

Using degrees Celsius for public forecast. Weather courtesy of forecast.io.

Current aviation weather report (METAR) for Ciudad Obregón International Airport

Report is more than 6 hours old.

Retrieved 2020/07/13 00:43 UTC (11 hours ago):

MMCN 130043Z 19008KT 10SM FEW100 BKN200 37/15 A2972 RMK 8/063 CB 1ST QUAD

Aviation forecast (TAF) for Ciudad Obregón International Airport

Retrieved 2020/07/13 06:59 UTC (4 hours ago):

TAF MMCN 130452Z 1306/1406 19006KT P6SM SCT100 BKN200 FM131000 00000KT P6SM SCT200 BECMG 1318/1319 15015KT FM140100 15006KT P6SM SCT100 BKN200